Time,TemperatureF,DewpointF,PressureIn,WindDirection,WindDirectionDegrees,WindSpeedMPH,WindSpeedGustMPH,Humidity,HourlyPrecipIn,Conditions,Clouds,dailyrainin,SoftwareType,DateUTC
2013-12-16 00:01:00,30.0,9.7,26.69,WSW,257,0.0,0.0,42,0.00,CLR,,0.00,WeatherDisplay:10.37,2013-12-16 05:01:00,
2013-12-16 00:06:00,30.0,9.7,26.69,WSW,257,0.0,0.0,42,0.00,CLR,,0.00,WeatherDisplay:10.37,2013-12-16 05:06:00,
2013-12-16 00:11:00,30.0,9.7,26.69,WSW,257,0.0,0.0,42,0.00,CLR,,0.00,WeatherDisplay:10.37,2013-12-16 05:11:00,
2013-12-16 00:16:00,30.0,9.7,26.69,WSW,257,0.0,0.0,42,0.00,CLR,,0.00,WeatherDisplay:10.37,2013-12-16 05:16:00,
2013-12-16 00:21:00,30.0,9.7,26.69,WSW,257,0.0,0.0,42,0.00,CLR,,0.00,WeatherDisplay:10.37,2013-12-16 05:21:00,
2013-12-16 00:26:00,30.0,9.7,26.69,WSW,257,0.0,0.0,42,0.00,CLR,,0.00,WeatherDisplay:10.37,2013-12-16 05:26:00,
2013-12-16 00:31:00,30.0,9.7,26.69,WSW,257,0.0,0.0,42,0.00,CLR,,0.00,WeatherDisplay:10.37,2013-12-16 05:31:00,
2013-12-16 00:36:00,30.0,9.7,26.69,WNW,293,0.0,0.0,42,0.00,CLR,,0.00,WeatherDisplay:10.37,2013-12-16 05:36:00,
2013-12-16 00:41:00,30.0,9.7,26.69,WNW,293,0.0,0.0,42,0.00,CLR,,0.00,WeatherDisplay:10.37,2013-12-16 05:41:00,
2013-12-16 00:46:00,30.0,9.7,26.69,North,5,0.0,0.0,42,0.00,CLR,,0.00,WeatherDisplay:10.37,2013-12-16 05:46:00,
2013-12-16 00:51:00,30.0,9.7,26.69,North,5,0.0,0.0,42,0.00,CLR,,0.00,WeatherDisplay:10.37,2013-12-16 05:51:00,
2013-12-16 00:56:00,30.0,9.7,26.69,WSW,252,5.8,5.8,42,0.00,CLR,,0.00,WeatherDisplay:10.37,2013-12-16 05:56:00,
2013-12-16 01:01:00,30.0,9.7,26.69,WSW,252,0.0,0.0,42,0.00,CLR,,0.00,WeatherDisplay:10.37,2013-12-16 06:01:00,
2013-12-16 01:06:00,30.0,9.7,26.69,WSW,252,0.0,0.0,42,0.00,CLR,,0.00,WeatherDisplay:10.37,2013-12-16 06:06:00,
2013-12-16 01:11:00,30.0,9.7,26.69,WSW,252,0.0,0.0,42,0.00,CLR,,0.00,WeatherDisplay:10.37,2013-12-16 06:11:00,
2013-12-16 01:16:00,30.0,9.7,26.69,WSW,253,0.0,0.0,42,0.00,CLR,,0.00,WeatherDisplay:10.37,2013-12-16 06:16:00,
2013-12-16 01:21:00,30.0,9.7,26.69,WSW,253,0.0,0.0,42,0.00,CLR,,0.00,WeatherDisplay:10.37,2013-12-16 06:21:00,
2013-12-16 01:26:00,30.0,9.7,26.69,WSW,253,0.0,0.0,42,0.00,CLR,,0.00,WeatherDisplay:10.37,2013-12-16 06:26:00,
2013-12-16 01:31:00,30.2,9.8,26.69,WSW,253,0.0,0.0,42,0.00,CLR,,0.00,WeatherDisplay:10.37,2013-12-16 06:31:00,
2013-12-16 01:36:00,30.2,9.8,26.69,WSW,253,0.0,0.0,42,0.00,CLR,,0.00,WeatherDisplay:10.37,2013-12-16 06:36:00,
2013-12-16 01:41:00,30.2,9.8,26.69,WSW,253,0.0,0.0,42,0.00,CLR,,0.00,WeatherDisplay:10.37,2013-12-16 06:41:00,
2013-12-16 01:46:00,30.2,9.8,26.69,WNW,292,0.0,0.0,42,0.00,CLR,,0.00,WeatherDisplay:10.37,2013-12-16 06:46:00,
2013-12-16 01:51:00,30.2,9.8,26.69,WNW,292,0.0,0.0,42,0.00,CLR,,0.00,WeatherDisplay:10.37,2013-12-16 06:51:00,
2013-12-16 01:56:00,30.2,9.8,26.69,WNW,291,0.0,0.0,42,0.00,CLR,,0.00,WeatherDisplay:10.37,2013-12-16 06:56:00,
2013-12-16 02:01:00,30.2,9.8,26.69,WNW,291,0.0,0.0,42,0.00,CLR,,0.00,WeatherDisplay:10.37,2013-12-16 07:01:00,
2013-12-16 02:06:00,30.2,9.8,26.69,WNW,291,0.0,0.0,42,0.00,CLR,,0.00,WeatherDisplay:10.37,2013-12-16 07:06:00,
2013-12-16 02:11:00,30.2,9.8,26.69,WNW,291,0.0,0.0,42,0.00,CLR,,0.00,WeatherDisplay:10.37,2013-12-16 07:11:00,
2013-12-16 02:16:00,30.4,10.0,26.69,WNW,291,0.0,0.0,42,0.00,CLR,,0.00,WeatherDisplay:10.37,2013-12-16 07:16:00,
2013-12-16 02:21:00,30.4,10.0,26.69,WNW,291,0.0,0.0,42,0.00,CLR,,0.00,WeatherDisplay:10.37,2013-12-16 07:21:00,
2013-12-16 02:26:00,30.4,10.0,26.69,WNW,291,0.0,0.0,42,0.00,CLR,,0.00,WeatherDisplay:10.37,2013-12-16 07:26:00,
2013-12-16 02:31:00,30.4,10.0,26.69,WNW,291,0.0,0.0,42,0.00,CLR,,0.00,WeatherDisplay:10.37,2013-12-16 07:31:00,
2013-12-16 02:36:00,30.4,10.0,26.69,WNW,291,0.0,0.0,42,0.00,CLR,,0.00,WeatherDisplay:10.37,2013-12-16 07:36:00,
2013-12-16 02:41:00,30.4,10.0,26.69,WNW,294,0.0,0.0,42,0.00,CLR,,0.00,WeatherDisplay:10.37,2013-12-16 07:41:00,
2013-12-16 02:46:00,30.4,10.0,26.69,WNW,293,0.0,0.0,42,0.00,CLR,,0.00,WeatherDisplay:10.37,2013-12-16 07:46:00,
2013-12-16 02:51:00,30.6,10.2,26.69,WNW,294,0.0,0.0,42,0.00,CLR,,0.00,WeatherDisplay:10.37,2013-12-16 07:51:00,
2013-12-16 02:56:00,30.6,10.2,26.69,WNW,293,0.0,0.0,42,0.00,CLR,,0.00,WeatherDisplay:10.37,2013-12-16 07:56:00,
2013-12-16 03:01:00,30.6,10.7,26.69,WNW,293,0.0,0.0,43,0.00,CLR,,0.00,WeatherDisplay:10.37,2013-12-16 08:01:00,
2013-12-16 03:06:00,30.6,10.7,26.69,WNW,293,0.0,0.0,43,0.00,CLR,,0.00,WeatherDisplay:10.37,2013-12-16 08:06:00,
2013-12-16 03:11:00,30.6,10.7,26.69,WNW,293,0.0,0.0,43,0.00,CLR,,0.00,WeatherDisplay:10.37,2013-12-16 08:11:00,
2013-12-16 03:16:00,30.7,10.8,26.69,WNW,293,0.0,0.0,43,0.00,CLR,,0.00,WeatherDisplay:10.37,2013-12-16 08:16:00,
2013-12-16 03:21:00,30.7,10.8,26.69,WNW,293,0.0,0.0,43,0.00,CLR,,0.00,WeatherDisplay:10.37,2013-12-16 08:21:00,
2013-12-16 03:26:00,30.7,10.8,26.69,WNW,293,0.0,0.0,43,0.00,CLR,,0.00,WeatherDisplay:10.37,2013-12-16 08:26:00,
2013-12-16 03:31:00,30.7,10.8,26.69,WNW,293,0.0,0.0,43,0.00,CLR,,0.00,WeatherDisplay:10.37,2013-12-16 08:31:00,
2013-12-16 03:36:00,30.9,11.0,26.69,WNW,293,0.0,0.0,43,0.00,CLR,,0.00,WeatherDisplay:10.37,2013-12-16 08:36:00,
2013-12-16 03:41:00,30.9,11.0,26.69,WNW,294,0.0,0.0,43,0.00,CLR,,0.00,WeatherDisplay:10.37,2013-12-16 08:41:00,
2013-12-16 03:46:00,30.9,11.0,26.69,WNW,294,0.0,0.0,43,0.00,CLR,,0.00,WeatherDisplay:10.37,2013-12-16 08:46:00,
2013-12-16 03:51:00,30.9,11.0,26.69,WNW,293,0.0,0.0,43,0.00,CLR,,0.00,WeatherDisplay:10.37,2013-12-16 08:51:00,
2013-12-16 03:56:00,30.9,11.0,26.69,WNW,294,0.0,0.0,43,0.00,CLR,,0.00,WeatherDisplay:10.37,2013-12-16 08:56:00,
2013-12-16 04:01:00,31.1,11.2,26.69,WNW,294,0.0,0.0,43,0.00,CLR,,0.00,WeatherDisplay:10.37,2013-12-16 09:01:00,
2013-12-16 04:06:00,31.1,11.2,26.69,WNW,294,0.0,0.0,43,0.00,CLR,,0.00,WeatherDisplay:10.37,2013-12-16 09:06:00,
2013-12-16 04:11:00,31.1,11.2,26.69,WNW,294,0.0,0.0,43,0.00,CLR,,0.00,WeatherDisplay:10.37,2013-12-16 09:11:00,
2013-12-16 04:16:00,30.9,11.0,26.69,WNW,294,0.0,0.0,43,0.00,CLR,,0.00,WeatherDisplay:10.37,2013-12-16 09:16:00,
2013-12-16 04:21:00,30.9,11.0,26.69,WNW,294,0.0,0.0,43,0.00,CLR,,0.00,WeatherDisplay:10.37,2013-12-16 09:21:00,
2013-12-16 04:26:00,30.9,11.0,26.69,WNW,294,0.0,0.0,43,0.00,CLR,,0.00,WeatherDisplay:10.37,2013-12-16 09:26:00,
2013-12-16 04:31:00,30.9,11.0,26.69,WNW,294,0.0,0.0,43,0.00,CLR,,0.00,WeatherDisplay:10.37,2013-12-16 09:31:00,
2013-12-16 04:36:00,30.9,11.0,26.69,WNW,294,0.0,0.0,43,0.00,CLR,,0.00,WeatherDisplay:10.37,2013-12-16 09:36:00,
2013-12-16 04:41:00,30.9,11.0,26.69,WNW,294,0.0,0.0,43,0.00,CLR,,0.00,WeatherDisplay:10.37,2013-12-16 09:41:00,
2013-12-16 04:46:00,30.9,11.0,26.69,WNW,294,0.0,0.0,43,0.00,CLR,,0.00,WeatherDisplay:10.37,2013-12-16 09:46:00,
2013-12-16 04:51:00,30.9,11.0,26.69,WNW,294,0.0,0.0,43,0.00,CLR,,0.00,WeatherDisplay:10.37,2013-12-16 09:51:00,
2013-12-16 04:56:00,30.9,11.5,26.69,WNW,294,0.0,0.0,44,0.00,CLR,,0.00,WeatherDisplay:10.37,2013-12-16 09:56:00,
2013-12-16 05:01:00,30.9,11.5,26.69,WNW,294,0.0,0.0,44,0.00,CLR,,0.00,WeatherDisplay:10.37,2013-12-16 10:01:00,
2013-12-16 05:06:00,30.9,11.5,26.69,WNW,294,0.0,0.0,44,0.00,CLR,,0.00,WeatherDisplay:10.37,2013-12-16 10:06:00,
2013-12-16 05:11:00,30.9,11.5,26.69,WNW,294,0.0,0.0,44,0.00,CLR,,0.00,WeatherDisplay:10.37,2013-12-16 10:11:00,
2013-12-16 05:16:00,30.9,11.5,26.69,WNW,294,0.0,0.0,44,0.00,CLR,,0.00,WeatherDisplay:10.37,2013-12-16 10:16:00,
2013-12-16 05:21:00,30.9,11.5,26.69,WNW,294,0.0,0.0,44,0.00,CLR,,0.00,WeatherDisplay:10.37,2013-12-16 10:21:00,
2013-12-16 05:26:00,30.7,11.4,26.69,WNW,294,0.0,0.0,44,0.00,CLR,,0.00,WeatherDisplay:10.37,2013-12-16 10:26:00,
2013-12-16 05:31:00,30.7,11.4,26.69,WNW,294,0.0,0.0,44,0.00,CLR,,0.00,WeatherDisplay:10.37,2013-12-16 10:31:00,
2013-12-16 05:36:00,30.7,11.4,26.69,WNW,294,0.0,0.0,44,0.00,CLR,,0.00,WeatherDisplay:10.37,2013-12-16 10:36:00,
2013-12-16 05:41:00,30.6,11.2,26.69,WNW,294,0.0,0.0,44,0.00,CLR,,0.00,WeatherDisplay:10.37,2013-12-16 10:41:00,
2013-12-16 05:46:00,30.6,11.2,26.69,WNW,294,0.0,0.0,44,0.00,CLR,,0.00,WeatherDisplay:10.37,2013-12-16 10:46:00,
2013-12-16 05:51:00,30.6,11.2,26.69,WNW,294,0.0,0.0,44,0.00,CLR,,0.00,WeatherDisplay:10.37,2013-12-16 10:51:00,
2013-12-16 05:56:00,30.6,11.2,26.69,WNW,294,0.0,0.0,44,0.00,CLR,,0.00,WeatherDisplay:10.37,2013-12-16 10:56:00,
2013-12-16 06:01:00,30.6,11.2,26.69,WNW,294,0.0,0.0,44,0.00,CLR,,0.00,WeatherDisplay:10.37,2013-12-16 11:01:00,
2013-12-16 06:06:00,30.6,11.2,26.69,WNW,294,0.0,0.0,44,0.00,CLR,,0.00,WeatherDisplay:10.37,2013-12-16 11:06:00,
2013-12-16 06:11:00,30.6,11.2,26.69,WNW,294,0.0,0.0,44,0.00,CLR,,0.00,WeatherDisplay:10.37,2013-12-16 11:11:00,
2013-12-16 06:16:00,30.6,11.2,26.69,WNW,294,0.0,0.0,44,0.00,CLR,,0.00,WeatherDisplay:10.37,2013-12-16 11:16:00,
2013-12-16 06:21:00,30.4,11.0,26.69,WNW,294,0.0,0.0,44,0.00,CLR,,0.00,WeatherDisplay:10.37,2013-12-16 11:21:00,
2013-12-16 06:26:00,30.6,11.2,26.69,WNW,294,0.0,0.0,44,0.00,CLR,,0.00,WeatherDisplay:10.37,2013-12-16 11:26:00,
2013-12-16 06:31:00,30.4,11.0,26.69,WNW,294,0.0,0.0,44,0.00,CLR,,0.00,WeatherDisplay:10.37,2013-12-16 11:31:00,
2013-12-16 06:36:00,30.6,11.2,26.69,WNW,294,0.0,0.0,44,0.00,CLR,,0.00,WeatherDisplay:10.37,2013-12-16 11:36:00,
2013-12-16 06:41:00,30.6,11.2,26.69,WNW,294,0.0,0.0,44,0.00,CLR,,0.00,WeatherDisplay:10.37,2013-12-16 11:41:00,
2013-12-16 06:46:00,30.6,11.2,26.69,WNW,294,0.0,0.0,44,0.00,CLR,,0.00,WeatherDisplay:10.37,2013-12-16 11:46:00,
2013-12-16 06:51:00,30.6,11.2,26.69,WNW,294,0.0,0.0,44,0.00,CLR,,0.00,WeatherDisplay:10.37,2013-12-16 11:51:00,
2013-12-16 06:56:00,30.6,11.2,26.69,WNW,294,0.0,0.0,44,0.00,CLR,,0.00,WeatherDisplay:10.37,2013-12-16 11:56:00,
2013-12-16 07:01:00,30.6,11.2,26.69,WNW,294,0.0,0.0,44,0.00,CLR,,0.00,WeatherDisplay:10.37,2013-12-16 12:01:00,
2013-12-16 07:06:00,30.6,11.2,26.69,WNW,294,0.0,0.0,44,0.00,CLR,,0.00,WeatherDisplay:10.37,2013-12-16 12:06:00,
2013-12-16 07:11:00,30.6,11.2,26.69,WNW,294,0.0,0.0,44,0.00,CLR,,0.00,WeatherDisplay:10.37,2013-12-16 12:11:00,
2013-12-16 07:16:00,30.7,11.4,26.69,WNW,294,0.0,0.0,44,0.00,CLR,,0.00,WeatherDisplay:10.37,2013-12-16 12:16:00,
2013-12-16 07:21:00,30.6,11.2,26.69,WNW,294,0.0,0.0,44,0.00,CLR,,0.00,WeatherDisplay:10.37,2013-12-16 12:21:00,
2013-12-16 07:26:00,30.7,11.4,26.69,WNW,294,0.0,0.0,44,0.00,CLR,,0.00,WeatherDisplay:10.37,2013-12-16 12:26:00,
2013-12-16 07:31:00,30.7,11.4,26.69,WNW,294,0.0,0.0,44,0.00,CLR,,0.00,WeatherDisplay:10.37,2013-12-16 12:31:00,
2013-12-16 07:36:00,30.7,11.4,26.69,WNW,294,0.0,0.0,44,0.00,CLR,,0.00,WeatherDisplay:10.37,2013-12-16 12:36:00,
2013-12-16 07:41:00,30.7,11.4,26.69,WNW,294,0.0,0.0,44,0.00,CLR,,0.00,WeatherDisplay:10.37,2013-12-16 12:41:00,
2013-12-16 07:46:00,30.7,11.4,26.69,WNW,294,0.0,0.0,44,0.00,CLR,,0.00,WeatherDisplay:10.37,2013-12-16 12:46:00,
2013-12-16 07:51:00,30.9,11.5,26.69,WNW,294,0.0,0.0,44,0.00,CLR,,0.00,WeatherDisplay:10.37,2013-12-16 12:51:00,
2013-12-16 07:56:00,30.9,11.5,26.69,WNW,294,0.0,0.0,44,0.00,CLR,,0.00,WeatherDisplay:10.37,2013-12-16 12:56:00,
2013-12-16 08:01:00,30.9,11.5,26.69,WNW,294,0.0,0.0,44,0.00,CLR,,0.00,WeatherDisplay:10.37,2013-12-16 13:01:00,
2013-12-16 08:06:00,31.1,11.7,26.69,WNW,294,0.0,0.0,44,0.00,CLR,,0.00,WeatherDisplay:10.37,2013-12-16 13:06:00,
2013-12-16 08:11:00,31.1,11.7,26.69,WNW,294,0.0,0.0,44,0.00,CLR,,0.00,WeatherDisplay:10.37,2013-12-16 13:11:00,
2013-12-16 08:16:00,31.1,11.7,26.69,WNW,294,0.0,0.0,44,0.00,CLR,,0.00,WeatherDisplay:10.37,2013-12-16 13:16:00,
2013-12-16 08:21:00,31.1,11.7,26.69,WNW,294,0.0,0.0,44,0.00,CLR,,0.00,WeatherDisplay:10.37,2013-12-16 13:21:00,
2013-12-16 08:26:00,31.3,11.9,26.69,WNW,294,0.0,0.0,44,0.00,CLR,,0.00,WeatherDisplay:10.37,2013-12-16 13:26:00,
2013-12-16 08:31:00,31.5,12.0,26.69,WNW,294,0.0,0.0,44,0.00,CLR,,0.00,WeatherDisplay:10.37,2013-12-16 13:31:00,
2013-12-16 08:36:00,31.5,12.0,26.69,WNW,294,0.0,0.0,44,0.00,CLR,,0.00,WeatherDisplay:10.37,2013-12-16 13:36:00,
2013-12-16 08:41:00,31.6,12.2,26.69,WNW,294,0.0,0.0,44,0.00,CLR,,0.00,WeatherDisplay:10.37,2013-12-16 13:41:00,
2013-12-16 08:46:00,31.8,12.9,26.69,WNW,294,0.0,0.0,45,0.00,CLR,,0.00,WeatherDisplay:10.37,2013-12-16 13:46:00,
2013-12-16 08:51:00,31.8,12.9,26.69,WNW,294,0.0,0.0,45,0.00,CLR,,0.00,WeatherDisplay:10.37,2013-12-16 13:51:00,
2013-12-16 08:56:00,32.0,13.0,26.69,WNW,294,0.0,0.0,45,0.00,CLR,,0.00,WeatherDisplay:10.37,2013-12-16 13:56:00,
2013-12-16 09:01:00,32.2,13.2,26.69,WNW,294,0.0,0.0,45,0.00,CLR,,0.00,WeatherDisplay:10.37,2013-12-16 14:01:00,
2013-12-16 09:06:00,32.4,12.8,26.69,WNW,294,0.0,0.0,44,0.00,CLR,,0.00,WeatherDisplay:10.37,2013-12-16 14:06:00,
2013-12-16 09:11:00,32.5,13.0,26.69,WNW,294,0.0,0.0,44,0.00,CLR,,0.00,WeatherDisplay:10.37,2013-12-16 14:11:00,
2013-12-16 09:16:00,32.7,13.2,26.69,WNW,294,0.0,0.0,44,0.00,CLR,,0.00,WeatherDisplay:10.37,2013-12-16 14:16:00,
2013-12-16 09:21:00,32.9,13.3,26.69,WNW,293,0.0,0.0,44,0.00,CLR,,0.00,WeatherDisplay:10.37,2013-12-16 14:21:00,
2013-12-16 09:26:00,33.1,13.5,26.69,WNW,294,0.0,0.0,44,0.00,CLR,,0.00,WeatherDisplay:10.37,2013-12-16 14:26:00,
2013-12-16 09:31:00,33.3,13.7,26.69,WNW,294,0.0,0.0,44,0.00,CLR,,0.00,WeatherDisplay:10.37,2013-12-16 14:31:00,
2013-12-16 09:36:00,33.4,13.8,26.69,WNW,294,0.0,0.0,44,0.00,CLR,,0.00,WeatherDisplay:10.37,2013-12-16 14:36:00,
2013-12-16 09:41:00,33.6,14.0,26.69,WNW,294,0.0,0.0,44,0.00,CLR,,0.00,WeatherDisplay:10.37,2013-12-16 14:41:00,
2013-12-16 09:46:00,34.0,13.8,26.69,WNW,293,0.0,0.0,43,0.00,CLR,,0.00,WeatherDisplay:10.37,2013-12-16 14:46:00,
2013-12-16 09:51:00,34.2,14.0,26.69,WNW,293,0.0,0.0,43,0.00,CLR,,0.00,WeatherDisplay:10.37,2013-12-16 14:51:00,
2013-12-16 09:56:00,34.5,14.3,26.69,WNW,293,0.0,0.0,43,0.00,CLR,,0.00,WeatherDisplay:10.37,2013-12-16 14:56:00,
2013-12-16 10:01:00,34.9,14.6,26.69,WNW,293,0.0,0.0,43,0.00,CLR,,0.00,WeatherDisplay:10.37,2013-12-16 15:01:00,
2013-12-16 10:06:00,35.1,14.8,26.69,WNW,294,0.0,0.0,43,0.00,CLR,,0.00,WeatherDisplay:10.37,2013-12-16 15:06:00,
2013-12-16 10:11:00,35.4,14.6,26.69,WNW,294,0.0,0.0,42,0.00,CLR,,0.00,WeatherDisplay:10.37,2013-12-16 15:11:00,
2013-12-16 10:16:00,35.6,14.2,26.69,WNW,293,0.0,0.0,41,0.00,CLR,,0.00,WeatherDisplay:10.37,2013-12-16 15:16:00,
2013-12-16 10:21:00,35.8,14.3,26.69,WNW,293,0.0,0.0,41,0.00,CLR,,0.00,WeatherDisplay:10.37,2013-12-16 15:21:00,
2013-12-16 10:26:00,36.1,14.7,26.69,WNW,294,0.0,0.0,41,0.00,CLR,,0.00,WeatherDisplay:10.37,2013-12-16 15:26:00,
2013-12-16 10:31:00,36.3,14.3,26.69,WNW,293,0.0,0.0,40,0.00,CLR,,0.00,WeatherDisplay:10.37,2013-12-16 15:31:00,
2013-12-16 10:36:00,36.7,14.6,26.69,WNW,293,0.0,0.0,40,0.00,CLR,,0.00,WeatherDisplay:10.37,2013-12-16 15:36:00,
2013-12-16 10:41:00,36.9,14.8,26.69,WNW,293,0.0,0.0,40,0.00,CLR,,0.00,WeatherDisplay:10.37,2013-12-16 15:41:00,
2013-12-16 10:46:00,37.2,14.5,26.69,WNW,293,0.0,0.0,39,0.00,CLR,,0.00,WeatherDisplay:10.37,2013-12-16 15:46:00,
2013-12-16 10:51:00,37.4,12.8,26.69,WNW,294,0.0,0.0,36,0.00,CLR,,0.00,WeatherDisplay:10.37,2013-12-16 15:51:00,
2013-12-16 10:56:00,37.6,11.7,26.69,WNW,293,0.0,0.0,34,0.00,CLR,,0.00,WeatherDisplay:10.37,2013-12-16 15:56:00,
2013-12-16 11:01:00,37.9,11.3,26.69,WNW,293,0.0,0.0,33,0.00,CLR,,0.00,WeatherDisplay:10.37,2013-12-16 16:01:00,
2013-12-16 11:06:00,38.1,11.5,26.69,WNW,293,0.0,0.0,33,0.00,CLR,,0.00,WeatherDisplay:10.37,2013-12-16 16:06:00,
2013-12-16 11:11:00,38.5,11.1,26.69,NW,316,3.5,3.5,32,0.00,CLR,,0.00,WeatherDisplay:10.37,2013-12-16 16:11:00,
2013-12-16 11:16:00,38.8,11.4,26.69,NW,316,0.0,0.0,32,0.00,CLR,,0.00,WeatherDisplay:10.37,2013-12-16 16:16:00,
2013-12-16 11:21:00,39.2,11.8,26.69,NW,316,0.0,0.0,32,0.00,CLR,,0.00,WeatherDisplay:10.37,2013-12-16 16:21:00,
2013-12-16 11:26:00,39.6,11.4,26.69,North,0,0.0,0.0,31,0.00,CLR,,0.00,WeatherDisplay:10.37,2013-12-16 16:26:00,
2013-12-16 11:31:00,39.9,10.9,26.69,SW,218,2.3,0.0,30,0.00,CLR,,0.00,WeatherDisplay:10.37,2013-12-16 16:31:00,
2013-12-16 11:36:00,40.5,11.4,26.69,NNW,335,0.0,0.0,30,0.00,CLR,,0.00,WeatherDisplay:10.37,2013-12-16 16:36:00,
2013-12-16 11:41:00,41.2,12.0,26.69,WNW,292,0.0,0.0,30,0.00,CLR,,0.00,WeatherDisplay:10.37,2013-12-16 16:41:00,
2013-12-16 11:46:00,41.7,12.5,26.69,WNW,303,0.0,0.0,30,0.00,CLR,,0.00,WeatherDisplay:10.37,2013-12-16 16:46:00,
2013-12-16 11:51:00,42.1,12.1,26.69,NW,315,0.0,0.0,29,0.00,CLR,,0.00,WeatherDisplay:10.37,2013-12-16 16:51:00,
2013-12-16 11:56:00,42.3,12.2,26.69,NW,315,0.0,0.0,29,0.00,CLR,,0.00,WeatherDisplay:10.37,2013-12-16 16:56:00,
2013-12-16 12:01:00,42.4,12.4,26.69,NW,315,0.0,0.0,29,0.00,CLR,,0.00,WeatherDisplay:10.37,2013-12-16 17:01:00,
2013-12-16 12:06:00,43.0,12.8,26.69,NW,315,0.0,0.0,29,0.00,CLR,,0.00,WeatherDisplay:10.37,2013-12-16 17:06:00,
2013-12-16 12:11:00,43.9,13.6,26.69,NW,315,0.0,0.0,29,0.00,CLR,,0.00,WeatherDisplay:10.37,2013-12-16 17:11:00,
2013-12-16 12:16:00,45.0,13.8,26.69,NW,313,0.0,0.0,28,0.00,CLR,,0.00,WeatherDisplay:10.37,2013-12-16 17:16:00,
2013-12-16 12:21:00,45.7,14.4,26.69,NW,313,0.0,0.0,28,0.00,CLR,,0.00,WeatherDisplay:10.37,2013-12-16 17:21:00,
2013-12-16 12:26:00,46.0,14.7,26.69,NW,313,0.0,0.0,28,0.00,CLR,,0.00,WeatherDisplay:10.37,2013-12-16 17:26:00,
2013-12-16 12:31:00,46.0,14.7,26.69,NW,313,0.0,0.0,28,0.00,CLR,,0.00,WeatherDisplay:10.37,2013-12-16 17:31:00,
2013-12-16 12:36:00,46.4,15.0,26.69,NW,315,0.0,0.0,28,0.00,CLR,,0.00,WeatherDisplay:10.37,2013-12-16 17:36:00,
2013-12-16 12:41:00,46.8,15.3,26.69,NW,315,0.0,0.0,28,0.00,CLR,,0.00,WeatherDisplay:10.37,2013-12-16 17:41:00,
2013-12-16 12:46:00,46.9,15.5,26.69,NW,318,0.0,0.0,28,0.00,CLR,,0.00,WeatherDisplay:10.37,2013-12-16 17:46:00,
2013-12-16 12:51:00,47.1,15.6,26.69,NW,318,0.0,0.0,28,0.00,CLR,,0.00,WeatherDisplay:10.37,2013-12-16 17:51:00,